Decoded Metar for LFBA (AGEN in FRANCE) (IATA:AGF) | Meteo·Mobile Aviation Weather
aviador You're here:

LFBA Decoded Metar

AGEN in FRANCE
Report Time2018-10-18 15:30:00
UTC Time2018-10-18 15:49:03
Flight Rules vfr VFR
WindVRB at 02 kt
Visibility9999 m
Phenomena:N/A
Clouds:N/A
Expected CloudBase > 1,600 ft AGL from Temp-Dew spread
CeilingNone
Temp21°C (ISA +6)
Dew Point17°C (78% RH)
QNH1014 hPa
Density Alt1,168 ft
Elevation197 ft
Report Wrong Elevation
Raw Report
METAR LFBA 181530Z AUTO VRB02KT CAVOK 21/17 Q1014 NOSIG=

Extra information for LFBA:More info

Metar Taf Metar & Taf Last 4 Metars F.Rules Stats Wind Profile Meteogram Temp Stats Airport Information Weather charts Add Link Nearby VenuesMetar ALERT Operation Metar Decoded Social comments